Time;durP1;ratioP1;P1;durP2;ratioP2;P2;SDS_P1;SDS_P2;PMS_P1;PMS_P2;Temp;Humidity;BMP_temperature;BMP_pressure;BME280_temperature;BME280_humidity;BME280_pressure;Samples;Min_cycle;Max_cycle;Signal;HPM_P1;HPM_P2
2022/05/14 00:01:42;;;;;;;10.20;4.10;;;;;;;;;;5036542;28;20844;-79
2022/05/14 00:04:09;;;;;;;8.80;3.80;;;;;;;;;;5053784;28;20432;-77
2022/05/14 00:06:35;;;;;;;10.20;4.28;;;;;;;;;;5054197;28;20761;-78
2022/05/14 00:09:05;;;;;;;10.38;3.67;;;;;;;;;;5054098;28;20174;-78
2022/05/14 00:14:15;;;;;;;12.93;4.03;;;;;;;;;;5053891;28;20224;-78
2022/05/14 00:16:41;;;;;;;10.30;4.13;;;;;;;;;;5053912;28;20612;-78
2022/05/14 00:19:08;;;;;;;7.20;3.73;;;;;;;;;;5053827;28;20487;-79
2022/05/14 00:21:35;;;;;;;26.87;4.90;;;;;;;;;;5069057;28;20413;-77
2022/05/14 00:24:01;;;;;;;8.80;3.67;;;;;;;;;;5053655;28;20748;-77
2022/05/14 00:26:27;;;;;;;13.40;4.00;;;;;;;;;;5053419;28;20428;-78
2022/05/14 00:28:53;;;;;;;6.77;4.00;;;;;;;;;;5053651;28;20537;-78
2022/05/14 00:31:19;;;;;;;8.77;4.20;;;;;;;;;;5053694;28;20473;-76
2022/05/14 00:33:46;;;;;;;9.33;5.30;;;;;;;;;;5053439;28;20222;-78
2022/05/14 00:36:12;;;;;;;10.73;3.47;;;;;;;;;;5035821;28;20918;-79
2022/05/14 00:38:39;;;;;;;11.45;3.70;;;;;;;;;;5053849;28;20354;-77
2022/05/14 00:41:06;;;;;;;8.50;3.85;;;;;;;;;;5053585;28;20178;-77
2022/05/14 00:43:32;;;;;;;9.35;3.65;;;;;;;;;;5052935;28;20205;-78
2022/05/14 00:46:25;;;;;;;7.93;3.60;;;;;;;;;;5019249;28;20181;-79
2022/05/14 00:48:52;;;;;;;10.27;3.88;;;;;;;;;;5030423;28;20508;-78
2022/05/14 00:51:20;;;;;;;9.57;4.22;;;;;;;;;;5053367;28;20170;-77
2022/05/14 00:53:48;;;;;;;6.65;3.42;;;;;;;;;;5053007;28;20202;-79
2022/05/14 00:56:16;;;;;;;9.73;3.60;;;;;;;;;;5053232;28;20193;-78
2022/05/14 00:58:56;;;;;;;11.40;4.75;;;;;;;;;;5053137;28;20409;-79
2022/05/14 01:01:22;;;;;;;10.60;4.00;;;;;;;;;;5053038;28;20513;-77
2022/05/14 01:03:48;;;;;;;12.83;4.17;;;;;;;;;;5034671;28;20201;-78
2022/05/14 01:06:16;;;;;;;14.47;4.20;;;;;;;;;;5053405;28;20460;-80
2022/05/14 01:08:43;;;;;;;7.22;3.28;;;;;;;;;;5053101;28;20400;-79
2022/05/14 01:11:10;;;;;;;10.00;4.55;;;;;;;;;;5053064;28;20650;-79
2022/05/14 01:13:36;;;;;;;11.70;4.45;;;;;;;;;;5052432;28;20189;-81
2022/05/14 01:16:04;;;;;;;13.90;4.88;;;;;;;;;;5052914;28;20177;-80
2022/05/14 01:18:31;;;;;;;10.32;3.70;;;;;;;;;;5053077;28;20173;-78
2022/05/14 01:21:00;;;;;;;16.73;3.85;;;;;;;;;;5052937;28;20173;-81
2022/05/14 01:26:27;;;;;;;13.10;3.53;;;;;;;;;;5052295;28;20212;-79
2022/05/14 01:26:29;;;;;;;11.48;3.80;;;;;;;;;;5052780;28;20189;-81
2022/05/14 01:28:57;;;;;;;9.88;3.95;;;;;;;;;;5040054;28;20197;-80
2022/05/14 01:31:23;;;;;;;9.57;3.70;;;;;;;;;;5052839;28;20178;-80
2022/05/14 01:34:05;;;;;;;9.83;3.50;;;;;;;;;;5110555;27;20586;-80
2022/05/14 01:36:31;;;;;;;8.93;3.95;;;;;;;;;;5110730;28;20403;-80
2022/05/14 01:38:57;;;;;;;6.57;3.50;;;;;;;;;;5092578;28;20176;-80
2022/05/14 01:41:23;;;;;;;15.73;3.93;;;;;;;;;;5110743;28;20406;-80
2022/05/14 01:43:51;;;;;;;7.07;3.67;;;;;;;;;;5110190;28;20897;-78
2022/05/14 01:46:17;;;;;;;9.68;4.05;;;;;;;;;;5110597;28;20275;-81
2022/05/14 01:48:43;;;;;;;10.30;3.90;;;;;;;;;;5092589;28;20202;-79
2022/05/14 01:51:09;;;;;;;6.67;3.57;;;;;;;;;;5112062;28;20176;-80
2022/05/14 01:53:35;;;;;;;11.90;4.60;;;;;;;;;;5109939;28;20518;-78
2022/05/14 01:56:01;;;;;;;9.60;3.85;;;;;;;;;;5109009;28;20563;-79
2022/05/14 01:58:39;;;;;;;8.67;3.70;;;;;;;;;;5110489;28;20638;-80
2022/05/14 02:01:08;;;;;;;15.50;4.00;;;;;;;;;;5110377;28;20415;-80
2022/05/14 02:03:34;;;;;;;9.48;4.20;;;;;;;;;;5109940;28;20172;-80
2022/05/14 02:06:00;;;;;;;10.13;3.33;;;;;;;;;;5109050;28;20176;-78
2022/05/14 02:08:26;;;;;;;6.50;3.60;;;;;;;;;;5109130;28;20195;-81
2022/05/14 02:10:52;;;;;;;10.07;3.67;;;;;;;;;;5110278;28;20184;-79
2022/05/14 02:13:18;;;;;;;12.70;3.65;;;;;;;;;;5109805;28;20522;-78
2022/05/14 02:15:44;;;;;;;10.88;4.60;;;;;;;;;;5110804;28;20271;-78
2022/05/14 02:18:10;;;;;;;10.23;4.40;;;;;;;;;;5109130;28;20199;-80
2022/05/14 02:20:36;;;;;;;12.02;4.15;;;;;;;;;;5110934;28;20729;-78
2022/05/14 02:23:02;;;;;;;8.27;4.00;;;;;;;;;;5110148;28;20172;-80
2022/05/14 02:25:28;;;;;;;8.27;4.20;;;;;;;;;;5110209;28;20202;-78
2022/05/14 02:27:54;;;;;;;7.40;4.07;;;;;;;;;;5110118;28;20255;-78
2022/05/14 02:30:20;;;;;;;12.90;3.85;;;;;;;;;;5110351;28;20402;-80
2022/05/14 02:32:46;;;;;;;7.53;4.00;;;;;;;;;;5108628;28;20219;-80
2022/05/14 02:35:12;;;;;;;11.67;3.73;;;;;;;;;;5109667;28;20192;-78
2022/05/14 02:37:38;;;;;;;7.90;3.35;;;;;;;;;;5109884;28;20406;-79
2022/05/14 02:40:05;;;;;;;10.30;4.20;;;;;;;;;;5109905;28;20524;-79
2022/05/14 02:42:31;;;;;;;3.80;2.67;;;;;;;;;;5109833;28;20195;-77
2022/05/14 02:44:57;;;;;;;9.40;3.33;;;;;;;;;;5098688;28;20189;-77
2022/05/14 02:47:23;;;;;;;4.90;2.90;;;;;;;;;;5096161;28;20411;-80
2022/05/14 02:49:49;;;;;;;5.13;2.75;;;;;;;;;;5096290;28;20510;-78
2022/05/14 02:52:15;;;;;;;11.67;3.70;;;;;;;;;;5096068;28;20302;-78
2022/05/14 02:54:41;;;;;;;8.02;3.05;;;;;;;;;;5095788;28;20478;-80
2022/05/14 02:57:08;;;;;;;7.17;3.37;;;;;;;;;;5096103;28;20582;-78
2022/05/14 02:59:34;;;;;;;11.63;3.78;;;;;;;;;;5096044;28;20903;-78
2022/05/14 03:02:00;;;;;;;8.25;3.78;;;;;;;;;;5094591;28;20279;-78
2022/05/14 03:04:27;;;;;;;4.68;3.35;;;;;;;;;;5095336;28;20224;-79
2022/05/14 03:06:54;;;;;;;7.65;3.65;;;;;;;;;;5095943;28;20203;-81
2022/05/14 03:09:20;;;;;;;10.00;3.20;;;;;;;;;;5095797;28;20256;-79
2022/05/14 03:11:47;;;;;;;9.77;2.70;;;;;;;;;;5095656;28;20176;-78
2022/05/14 03:14:13;;;;;;;12.30;4.40;;;;;;;;;;5095184;28;20204;-79
2022/05/14 03:16:40;;;;;;;11.52;3.30;;;;;;;;;;5095338;28;20173;-78
2022/05/14 03:19:06;;;;;;;5.30;3.08;;;;;;;;;;5095519;28;20187;-78
2022/05/14 03:21:32;;;;;;;6.95;3.78;;;;;;;;;;5094373;28;20709;-78
2022/05/14 03:23:58;;;;;;;6.53;3.22;;;;;;;;;;5095121;28;20275;-79
2022/05/14 03:26:24;;;;;;;11.17;3.13;;;;;;;;;;5095449;28;20266;-79
2022/05/14 03:28:50;;;;;;;12.60;3.45;;;;;;;;;;5095315;28;20415;-78
2022/05/14 03:31:16;;;;;;;7.93;3.30;;;;;;;;;;5095347;28;20199;-79
2022/05/14 03:33:42;;;;;;;9.73;3.17;;;;;;;;;;5094832;28;20488;-79
2022/05/14 03:36:08;;;;;;;8.83;2.83;;;;;;;;;;5094040;28;20407;-77
2022/05/14 03:38:35;;;;;;;17.33;3.25;;;;;;;;;;5093835;28;20488;-81
2022/05/14 03:41:01;;;;;;;6.28;3.50;;;;;;;;;;5095328;28;20192;-77
2022/05/14 03:43:27;;;;;;;6.65;3.38;;;;;;;;;;5095032;28;20184;-78
2022/05/14 03:45:53;;;;;;;9.30;3.90;;;;;;;;;;5095279;28;20621;-79
2022/05/14 03:48:19;;;;;;;8.70;4.03;;;;;;;;;;5095232;28;20452;-79
2022/05/14 03:50:45;;;;;;;6.97;3.50;;;;;;;;;;5094987;28;20783;-77
2022/05/14 03:53:11;;;;;;;9.70;4.30;;;;;;;;;;5094593;28;20208;-78
2022/05/14 03:55:37;;;;;;;7.83;3.57;;;;;;;;;;5093827;28;20418;-79
2022/05/14 03:58:03;;;;;;;6.27;4.47;;;;;;;;;;5095070;28;20411;-79
2022/05/14 04:00:29;;;;;;;9.52;4.07;;;;;;;;;;5094881;28;20407;-79
2022/05/14 04:02:55;;;;;;;7.80;3.60;;;;;;;;;;5094412;28;20233;-77
2022/05/14 04:05:22;;;;;;;3.70;2.65;;;;;;;;;;5094549;28;20487;-77
2022/05/14 04:07:48;;;;;;;7.47;4.45;;;;;;;;;;5094585;28;20176;-78
2022/05/14 04:10:17;;;;;;;8.70;3.75;;;;;;;;;;5094846;28;20641;-80
2022/05/14 04:12:44;;;;;;;6.03;3.90;;;;;;;;;;5093248;28;20581;-78
2022/05/14 04:15:11;;;;;;;7.65;4.13;;;;;;;;;;5094226;28;20185;-80
2022/05/14 04:17:37;;;;;;;6.28;3.70;;;;;;;;;;5094490;28;20260;-81
2022/05/14 04:20:03;;;;;;;11.70;3.95;;;;;;;;;;5094391;28;20176;-81
2022/05/14 04:22:30;;;;;;;6.50;3.38;;;;;;;;;;5094412;28;20195;-79
2022/05/14 04:24:56;;;;;;;8.55;3.90;;;;;;;;;;5093848;28;20616;-78
2022/05/14 04:27:22;;;;;;;7.20;3.65;;;;;;;;;;5094306;28;20176;-79
2022/05/14 04:29:48;;;;;;;10.33;4.00;;;;;;;;;;5094462;28;20504;-80
2022/05/14 04:32:14;;;;;;;5.97;3.50;;;;;;;;;;5094346;28;20472;-79
2022/05/14 04:34:41;;;;;;;7.80;3.40;;;;;;;;;;5094455;28;20602;-78
2022/05/14 04:37:07;;;;;;;7.95;4.03;;;;;;;;;;5094316;28;20177;-77
2022/05/14 04:39:32;;;;;;;10.67;5.03;;;;;;;;;;5094185;28;20221;-80
2022/05/14 04:42:03;;;;;;;8.57;4.43;;;;;;;;;;5094069;28;20410;-79
2022/05/14 04:44:29;;;;;;;9.15;3.30;;;;;;;;;;5093675;28;20419;-78
2022/05/14 04:46:55;;;;;;;9.90;4.43;;;;;;;;;;5092779;28;20185;-79
2022/05/14 04:49:21;;;;;;;7.82;3.83;;;;;;;;;;5093709;28;20172;-81
2022/05/14 04:51:48;;;;;;;14.57;4.38;;;;;;;;;;5093858;28;20263;-80
2022/05/14 04:54:15;;;;;;;12.15;4.43;;;;;;;;;;5093613;28;20245;-79
2022/05/14 04:56:41;;;;;;;5.72;3.38;;;;;;;;;;5093808;28;20175;-79
2022/05/14 04:59:07;;;;;;;6.95;3.63;;;;;;;;;;5092589;28;20187;-78
2022/05/14 05:01:33;;;;;;;5.00;3.53;;;;;;;;;;5094466;28;20550;-80
2022/05/14 05:03:59;;;;;;;5.82;3.65;;;;;;;;;;5092191;28;20430;-80
2022/05/14 05:06:25;;;;;;;9.25;3.72;;;;;;;;;;5093504;28;20181;-78
2022/05/14 05:08:52;;;;;;;10.77;3.63;;;;;;;;;;5092294;28;20283;-77
2022/05/14 05:11:21;;;;;;;7.68;4.03;;;;;;;;;;5093481;28;20181;-78
2022/05/14 05:13:47;;;;;;;10.00;4.15;;;;;;;;;;5092976;28;20212;-79
2022/05/14 05:16:13;;;;;;;10.80;4.77;;;;;;;;;;5092131;28;20298;-78
2022/05/14 05:18:40;;;;;;;11.97;3.90;;;;;;;;;;5093427;28;20402;-80
2022/05/14 05:21:09;;;;;;;6.63;4.00;;;;;;;;;;5093356;28;20766;-80
2022/05/14 05:23:35;;;;;;;12.77;3.92;;;;;;;;;;5091475;28;20191;-78
2022/05/14 05:26:01;;;;;;;6.35;4.10;;;;;;;;;;5093458;28;20168;-77
2022/05/14 05:28:28;;;;;;;7.80;3.00;;;;;;;;;;5093524;28;20177;-82
2022/05/14 05:30:54;;;;;;;4.90;3.65;;;;;;;;;;5093565;28;20410;-80
2022/05/14 05:33:25;;;;;;;4.30;3.55;;;;;;;;;;5091465;28;20212;-79
2022/05/14 05:35:52;;;;;;;5.88;3.60;;;;;;;;;;5093364;28;20176;-77
2022/05/14 05:38:18;;;;;;;7.13;3.40;;;;;;;;;;5093464;28;20173;-78
2022/05/14 05:40:44;;;;;;;8.40;3.28;;;;;;;;;;5093325;28;20587;-80
2022/05/14 05:43:11;;;;;;;6.63;4.15;;;;;;;;;;5091744;28;20183;-78
2022/05/14 05:45:38;;;;;;;10.32;4.80;;;;;;;;;;5092836;28;20192;-78
2022/05/14 05:48:05;;;;;;;11.75;4.45;;;;;;;;;;5093487;28;20237;-79
2022/05/14 05:50:31;;;;;;;5.57;4.07;;;;;;;;;;5093295;28;20200;-79
2022/05/14 05:52:57;;;;;;;8.33;3.80;;;;;;;;;;5092860;28;20204;-79
2022/05/14 05:58:08;;;;;;;11.20;3.83;;;;;;;;;;5094591;28;20406;-79
2022/05/14 06:00:36;;;;;;;10.30;3.80;;;;;;;;;;5098777;28;20177;-77
2022/05/14 06:03:02;;;;;;;9.13;4.43;;;;;;;;;;5093970;28;20414;-79
2022/05/14 06:05:28;;;;;;;9.05;3.50;;;;;;;;;;5093129;28;20562;-79
2022/05/14 06:07:54;;;;;;;8.73;3.73;;;;;;;;;;5092981;28;20198;-77
2022/05/14 06:10:22;;;;;;;14.02;4.45;;;;;;;;;;5092875;28;20414;-81
2022/05/14 06:12:48;;;;;;;5.35;3.60;;;;;;;;;;5092666;28;20196;-80
2022/05/14 06:15:16;;;;;;;11.35;5.38;;;;;;;;;;5091331;28;20226;-78
2022/05/14 06:17:43;;;;;;;8.18;4.20;;;;;;;;;;5092780;28;20259;-79
2022/05/14 06:20:10;;;;;;;8.00;3.90;;;;;;;;;;5095323;28;20164;-77
2022/05/14 06:22:36;;;;;;;5.93;3.70;;;;;;;;;;5096506;28;20187;-81
2022/05/14 06:25:03;;;;;;;7.83;3.93;;;;;;;;;;5096123;28;20197;-80
2022/05/14 06:27:29;;;;;;;9.77;3.50;;;;;;;;;;5095186;28;20483;-79
2022/05/14 06:29:55;;;;;;;9.90;3.20;;;;;;;;;;5096406;28;20180;-78
2022/05/14 06:32:21;;;;;;;11.33;3.50;;;;;;;;;;5094998;28;20474;-79
2022/05/14 06:34:47;;;;;;;14.47;4.87;;;;;;;;;;5096194;28;20925;-80
2022/05/14 06:37:13;;;;;;;6.97;3.40;;;;;;;;;;5096488;28;20399;-80
2022/05/14 06:39:39;;;;;;;6.67;3.97;;;;;;;;;;5095026;28;20526;-80
2022/05/14 06:42:05;;;;;;;11.10;4.23;;;;;;;;;;5096345;28;20410;-79
2022/05/14 06:44:32;;;;;;;9.70;3.90;;;;;;;;;;5095864;28;20532;-81
2022/05/14 06:46:58;;;;;;;9.90;3.17;;;;;;;;;;5096406;28;20464;-80
2022/05/14 06:49:24;;;;;;;9.87;4.20;;;;;;;;;;5096356;28;20475;-78
2022/05/14 06:51:52;;;;;;;5.00;3.43;;;;;;;;;;5096022;28;20489;-78
2022/05/14 06:54:20;;;;;;;6.50;3.50;;;;;;;;;;5095590;28;20431;-77
2022/05/14 06:56:46;;;;;;;6.60;3.47;;;;;;;;;;5095953;28;20406;-79
2022/05/14 06:59:14;;;;;;;12.57;3.70;;;;;;;;;;5096297;28;20959;-77
2022/05/14 07:01:41;;;;;;;9.83;3.43;;;;;;;;;;5095975;28;20486;-79
2022/05/14 07:06:53;;;;;;;6.77;3.20;;;;;;;;;;5095965;28;20410;-80
2022/05/14 07:09:22;;;;;;;6.03;3.20;;;;;;;;;;5095861;28;20769;-79
2022/05/14 07:11:49;;;;;;;10.37;4.30;;;;;;;;;;5095545;28;20490;-79
2022/05/14 07:14:19;;;;;;;13.43;3.37;;;;;;;;;;5095186;28;20430;-79
2022/05/14 07:16:46;;;;;;;7.43;3.33;;;;;;;;;;5095545;28;20417;-80
2022/05/14 07:19:12;;;;;;;8.50;3.67;;;;;;;;;;5095599;28;20817;-78
2022/05/14 07:21:39;;;;;;;7.50;3.23;;;;;;;;;;5094166;28;20411;-78
2022/05/14 07:24:07;;;;;;;7.60;4.00;;;;;;;;;;5095101;28;20434;-79
2022/05/14 07:26:35;;;;;;;13.93;3.97;;;;;;;;;;5095219;28;20407;-80
2022/05/14 07:29:01;;;;;;;17.70;3.67;;;;;;;;;;5094040;28;20418;-80
2022/05/14 07:31:27;;;;;;;14.00;4.07;;;;;;;;;;5095370;28;20766;-77
2022/05/14 07:33:53;;;;;;;15.53;3.37;;;;;;;;;;5094650;28;20442;-79
2022/05/14 07:36:20;;;;;;;8.10;3.70;;;;;;;;;;5094148;28;20408;-80
2022/05/14 07:38:46;;;;;;;10.57;3.17;;;;;;;;;;5093742;28;20460;-77
2022/05/14 07:41:13;;;;;;;14.03;4.20;;;;;;;;;;5095192;28;20434;-77
2022/05/14 07:43:41;;;;;;;5.90;4.20;;;;;;;;;;5094615;28;20430;-80
2022/05/14 07:46:10;;;;;;;11.20;3.50;;;;;;;;;;5095001;28;20441;-79
2022/05/14 07:48:37;;;;;;;12.93;3.87;;;;;;;;;;5094750;28;20451;-79
2022/05/14 07:51:05;;;;;;;12.87;4.33;;;;;;;;;;5094886;28;20441;-80
2022/05/14 07:53:31;;;;;;;6.77;4.20;;;;;;;;;;5094524;28;20421;-78
2022/05/14 07:55:58;;;;;;;10.43;3.67;;;;;;;;;;5094836;28;20406;-79
2022/05/14 07:58:24;;;;;;;5.40;3.10;;;;;;;;;;5094802;28;20406;-76
2022/05/14 08:00:50;;;;;;;11.83;3.60;;;;;;;;;;5094624;28;20748;-73
2022/05/14 08:03:16;;;;;;;6.90;3.00;;;;;;;;;;5093179;28;20393;-74
2022/05/14 08:05:42;;;;;;;8.47;3.33;;;;;;;;;;5094663;28;20422;-75
2022/05/14 08:08:08;;;;;;;6.67;3.40;;;;;;;;;;5094597;28;20381;-75
2022/05/14 08:10:35;;;;;;;7.07;2.87;;;;;;;;;;5094458;28;20381;-76
2022/05/14 08:13:01;;;;;;;6.73;3.33;;;;;;;;;;5094006;28;20488;-74
2022/05/14 08:15:28;;;;;;;10.03;4.10;;;;;;;;;;5094257;28;20846;-75
2022/05/14 08:17:54;;;;;;;17.97;4.30;;;;;;;;;;5081106;28;20486;-75
2022/05/14 08:20:20;;;;;;;7.37;3.20;;;;;;;;;;5074006;28;20412;-75
2022/05/14 08:25:32;;;;;;;9.70;4.30;;;;;;;;;;5074056;28;20492;-74
2022/05/14 08:27:58;;;;;;;6.97;3.43;;;;;;;;;;5072549;28;20398;-74
2022/05/14 08:30:26;;;;;;;15.80;3.60;;;;;;;;;;5073845;28;20403;-75
2022/05/14 08:32:52;;;;;;;5.60;3.40;;;;;;;;;;5073235;28;20467;-78
2022/05/14 08:35:18;;;;;;;11.70;3.80;;;;;;;;;;5073580;28;20904;-75
2022/05/14 08:37:45;;;;;;;13.50;3.80;;;;;;;;;;5072462;28;20472;-73
2022/05/14 08:40:17;;;;;;;11.43;3.70;;;;;;;;;;5073522;28;20465;-74
2022/05/14 08:42:44;;;;;;;8.33;3.17;;;;;;;;;;5073273;28;20441;-74
2022/05/14 08:45:12;;;;;;;9.87;3.70;;;;;;;;;;5073360;28;20479;-74
2022/05/14 08:47:40;;;;;;;11.73;3.37;;;;;;;;;;5073662;28;20422;-74
2022/05/14 08:50:07;;;;;;;6.40;3.00;;;;;;;;;;5073578;28;20477;-75
2022/05/14 08:52:34;;;;;;;17.17;4.10;;;;;;;;;;5073163;28;20451;-75
2022/05/14 08:55:01;;;;;;;7.13;3.60;;;;;;;;;;5073000;28;20426;-75
2022/05/14 08:57:36;;;;;;;12.57;3.80;;;;;;;;;;5073463;28;20443;-74
2022/05/14 09:00:05;;;;;;;6.97;3.20;;;;;;;;;;5073275;28;20406;-74
2022/05/14 09:02:31;;;;;;;6.00;3.00;;;;;;;;;;5073245;28;20755;-74
2022/05/14 09:05:05;;;;;;;8.20;3.40;;;;;;;;;;5072941;28;20424;-75
2022/05/14 09:07:31;;;;;;;6.53;3.03;;;;;;;;;;5073215;28;20407;-75
2022/05/14 09:09:58;;;;;;;7.47;3.20;;;;;;;;;;5073257;28;20466;-75
2022/05/14 09:12:29;;;;;;;9.10;3.40;;;;;;;;;;5073228;28;20484;-74
2022/05/14 09:14:57;;;;;;;15.80;4.07;;;;;;;;;;5072840;28;20434;-77
2022/05/14 09:17:24;;;;;;;7.73;3.23;;;;;;;;;;5073049;28;20404;-75
2022/05/14 09:19:52;;;;;;;7.30;3.10;;;;;;;;;;5073030;28;20422;-76
2022/05/14 09:22:32;;;;;;;10.53;3.13;;;;;;;;;;5071730;28;20438;-75
2022/05/14 09:25:04;;;;;;;7.77;2.83;;;;;;;;;;5072498;28;20434;-75
2022/05/14 09:27:34;;;;;;;10.80;3.23;;;;;;;;;;5072700;28;20415;-75
2022/05/14 09:30:05;;;;;;;8.50;3.43;;;;;;;;;;5073091;28;20410;-75
2022/05/14 09:32:39;;;;;;;4.83;2.60;;;;;;;;;;5072778;28;20474;-74
2022/05/14 09:35:07;;;;;;;12.53;4.00;;;;;;;;;;5072549;28;20498;-75
2022/05/14 09:37:33;;;;;;;10.60;4.30;;;;;;;;;;5072687;28;20409;-75
2022/05/14 09:40:00;;;;;;;11.10;4.00;;;;;;;;;;5072755;28;20415;-75
2022/05/14 09:42:30;;;;;;;9.37;3.23;;;;;;;;;;5072646;28;20404;-75
2022/05/14 09:44:57;;;;;;;8.90;4.50;;;;;;;;;;5072783;28;20465;-74
2022/05/14 09:47:31;;;;;;;8.67;2.93;;;;;;;;;;5072822;28;20803;-76
2022/05/14 09:49:58;;;;;;;8.70;3.20;;;;;;;;;;5072884;28;20493;-75
2022/05/14 09:52:25;;;;;;;7.20;3.17;;;;;;;;;;5072738;28;20463;-75
2022/05/14 09:54:52;;;;;;;11.03;4.07;;;;;;;;;;5074686;28;20943;-75
2022/05/14 09:57:36;;;;;;;5.83;2.30;;;;;;;;;;5077012;28;20794;-76
2022/05/14 10:00:12;;;;;;;9.90;3.20;;;;;;;;;;5075457;28;20415;-75
2022/05/14 10:02:44;;;;;;;5.93;3.10;;;;;;;;;;5075534;28;20410;-75
2022/05/14 10:05:24;;;;;;;10.00;3.67;;;;;;;;;;5076779;28;20423;-75
2022/05/14 10:08:16;;;;;;;15.47;3.50;;;;;;;;;;5075480;28;20403;-75
2022/05/14 10:11:04;;;;;;;7.47;2.40;;;;;;;;;;5046263;28;20549;-74
2022/05/14 10:13:34;;;;;;;10.53;3.20;;;;;;;;;;5076260;28;20490;-75
2022/05/14 10:16:00;;;;;;;8.20;3.67;;;;;;;;;;5076359;28;20404;-75
2022/05/14 10:18:50;;;;;;;8.13;2.70;;;;;;;;;;5076462;28;20410;-75
2022/05/14 10:21:35;;;;;;;5.20;2.50;;;;;;;;;;5076545;28;20771;-74
2022/05/14 10:27:05;;;;;;;8.43;3.43;;;;;;;;;;5076463;28;20762;-76
2022/05/14 10:29:31;;;;;;;9.60;3.27;;;;;;;;;;5076335;28;20473;-76
2022/05/14 10:31:57;;;;;;;10.40;3.80;;;;;;;;;;5076045;28;20510;-76
2022/05/14 10:34:26;;;;;;;6.97;3.10;;;;;;;;;;5075816;28;20515;-76
2022/05/14 10:36:58;;;;;;;9.27;3.03;;;;;;;;;;5076169;28;20542;-75
2022/05/14 10:39:41;;;;;;;7.63;3.27;;;;;;;;;;5076125;28;20408;-75
2022/05/14 10:42:20;;;;;;;9.73;2.97;;;;;;;;;;5076162;28;20899;-74
2022/05/14 10:44:50;;;;;;;9.67;2.80;;;;;;;;;;5075813;28;20914;-74
2022/05/14 10:47:16;;;;;;;10.23;2.53;;;;;;;;;;5076395;28;20402;-73
2022/05/14 10:49:42;;;;;;;11.20;3.40;;;;;;;;;;5076198;28;20407;-76
2022/05/14 10:52:13;;;;;;;6.40;3.37;;;;;;;;;;5075755;28;20911;-75
2022/05/14 10:54:39;;;;;;;8.73;2.90;;;;;;;;;;5075677;28;20431;-75
2022/05/14 10:57:14;;;;;;;5.73;3.10;;;;;;;;;;5075988;28;20435;-75
2022/05/14 10:59:45;;;;;;;9.10;3.30;;;;;;;;;;5075876;28;20407;-76
2022/05/14 11:02:12;;;;;;;13.30;2.90;;;;;;;;;;5075620;28;20397;-75
2022/05/14 11:04:47;;;;;;;4.63;2.43;;;;;;;;;;5074826;28;20428;-75
2022/05/14 11:07:27;;;;;;;8.07;3.13;;;;;;;;;;5075581;28;20478;-75
2022/05/14 11:09:53;;;;;;;9.00;3.00;;;;;;;;;;5075545;28;20771;-76
2022/05/14 11:12:19;;;;;;;9.07;2.90;;;;;;;;;;5075381;28;20928;-75
2022/05/14 11:14:47;;;;;;;8.83;2.50;;;;;;;;;;5075131;28;20439;-75
2022/05/14 11:17:33;;;;;;;6.63;2.60;;;;;;;;;;5075465;28;20419;-75
2022/05/14 11:20:05;;;;;;;6.60;2.60;;;;;;;;;;5075333;28;20479;-75
2022/05/14 11:22:33;;;;;;;6.13;2.23;;;;;;;;;;5075287;28;20794;-75
2022/05/14 11:25:21;;;;;;;13.73;3.13;;;;;;;;;;5074849;28;20432;-75
2022/05/14 11:27:56;;;;;;;12.60;2.90;;;;;;;;;;5075253;28;20745;-75
2022/05/14 11:30:30;;;;;;;12.43;3.40;;;;;;;;;;5075339;28;20403;-75
2022/05/14 11:32:57;;;;;;;8.00;2.60;;;;;;;;;;5074687;28;20541;-76
2022/05/14 11:35:23;;;;;;;15.33;2.77;;;;;;;;;;5074976;28;20947;-75
2022/05/14 11:37:50;;;;;;;7.77;1.90;;;;;;;;;;5075186;28;20881;-75
2022/05/14 11:40:19;;;;;;;8.50;2.87;;;;;;;;;;5075029;28;20403;-75
2022/05/14 11:42:47;;;;;;;8.73;2.60;;;;;;;;;;5074865;28;20409;-75
2022/05/14 11:45:23;;;;;;;4.87;2.53;;;;;;;;;;5073399;28;20440;-75
2022/05/14 11:47:49;;;;;;;6.90;2.13;;;;;;;;;;5074933;28;20966;-75
2022/05/14 11:50:17;;;;;;;12.93;3.00;;;;;;;;;;5074954;28;20443;-75
2022/05/14 11:53:01;;;;;;;9.33;2.37;;;;;;;;;;5074637;28;20807;-75
2022/05/14 11:55:35;;;;;;;11.00;2.87;;;;;;;;;;5074863;28;20423;-75
2022/05/14 11:58:11;;;;;;;10.80;2.90;;;;;;;;;;5073703;28;20960;-75
2022/05/14 12:00:37;;;;;;;8.60;2.80;;;;;;;;;;5074531;28;20855;-75
2022/05/14 12:03:09;;;;;;;6.13;2.40;;;;;;;;;;5074483;28;20420;-75
2022/05/14 12:05:35;;;;;;;5.60;2.80;;;;;;;;;;5074395;28;20428;-75
2022/05/14 12:08:01;;;;;;;10.70;3.27;;;;;;;;;;5074448;28;20956;-75
2022/05/14 12:10:27;;;;;;;9.20;3.20;;;;;;;;;;5072886;28;20400;-76
2022/05/14 12:12:56;;;;;;;6.57;2.57;;;;;;;;;;5073686;28;20512;-75
2022/05/14 12:15:24;;;;;;;11.83;3.07;;;;;;;;;;5074211;28;20420;-75
2022/05/14 12:17:51;;;;;;;6.60;2.27;;;;;;;;;;5073311;28;20931;-74
2022/05/14 12:20:26;;;;;;;8.23;3.07;;;;;;;;;;5074114;28;20455;-75
2022/05/14 12:23:06;;;;;;;6.80;3.10;;;;;;;;;;5073504;28;20498;-78
2022/05/14 12:25:34;;;;;;;9.53;2.60;;;;;;;;;;5073879;28;20432;-75
2022/05/14 12:28:01;;;;;;;10.73;3.30;;;;;;;;;;5074059;28;20411;-74
2022/05/14 12:33:12;;;;;;;8.53;2.73;;;;;;;;;;5073376;28;20486;-75
2022/05/14 12:35:41;;;;;;;11.70;3.53;;;;;;;;;;5073666;28;20420;-74
2022/05/14 12:38:09;;;;;;;12.53;3.10;;;;;;;;;;5073629;28;20442;-74
2022/05/14 12:40:38;;;;;;;6.93;2.33;;;;;;;;;;5073786;28;20417;-75
2022/05/14 12:43:08;;;;;;;7.67;2.20;;;;;;;;;;5073129;28;20476;-75
2022/05/14 12:45:42;;;;;;;5.50;2.33;;;;;;;;;;5073520;28;20439;-75
2022/05/14 12:48:09;;;;;;;5.40;2.13;;;;;;;;;;5073534;28;20410;-75
2022/05/14 12:50:35;;;;;;;6.43;2.50;;;;;;;;;;5073462;28;20447;-75
2022/05/14 12:53:06;;;;;;;8.73;2.63;;;;;;;;;;5073204;28;20459;-75
2022/05/14 12:55:35;;;;;;;7.50;2.70;;;;;;;;;;5073613;28;20436;-76
2022/05/14 12:58:02;;;;;;;8.43;3.33;;;;;;;;;;5073351;28;20403;-75
2022/05/14 13:00:28;;;;;;;5.90;2.43;;;;;;;;;;5073552;28;20406;-75
2022/05/14 13:02:59;;;;;;;5.93;2.33;;;;;;;;;;5072841;28;20900;-75
2022/05/14 13:05:32;;;;;;;8.17;2.73;;;;;;;;;;5073058;28;20426;-75
2022/05/14 13:08:12;;;;;;;8.20;2.60;;;;;;;;;;5073413;28;20438;-75
2022/05/14 13:10:39;;;;;;;6.77;3.07;;;;;;;;;;5073147;28;20414;-75
2022/05/14 13:13:07;;;;;;;5.73;2.40;;;;;;;;;;5071493;28;20459;-75
2022/05/14 13:15:41;;;;;;;5.60;1.97;;;;;;;;;;5072963;28;20514;-75
2022/05/14 13:18:11;;;;;;;3.53;2.60;;;;;;;;;;5073168;28;20452;-75
2022/05/14 13:20:38;;;;;;;6.03;2.27;;;;;;;;;;5055083;28;20412;-76
2022/05/14 13:23:09;;;;;;;5.80;3.07;;;;;;;;;;5072735;28;20427;-75
2022/05/14 13:25:36;;;;;;;6.73;2.47;;;;;;;;;;5073004;28;20424;-75
2022/05/14 13:28:11;;;;;;;6.50;3.10;;;;;;;;;;5072850;28;20819;-75
2022/05/14 13:30:37;;;;;;;5.20;2.37;;;;;;;;;;5072795;28;20838;-75
2022/05/14 13:33:08;;;;;;;8.40;2.37;;;;;;;;;;5070742;28;20467;-75
2022/05/14 13:38:19;;;;;;;8.30;2.50;;;;;;;;;;5073106;28;20406;-75
2022/05/14 13:40:47;;;;;;;7.03;2.70;;;;;;;;;;5081431;28;20414;-75
2022/05/14 13:43:23;;;;;;;8.70;2.90;;;;;;;;;;5072541;28;20808;-75
2022/05/14 13:45:56;;;;;;;10.13;3.20;;;;;;;;;;5073179;28;20414;-75
2022/05/14 13:48:48;;;;;;;9.47;2.43;;;;;;;;;;5073000;28;20398;-75
2022/05/14 13:51:17;;;;;;;8.40;3.07;;;;;;;;;;5071173;28;20419;-75
2022/05/14 13:53:44;;;;;;;8.80;3.30;;;;;;;;;;5080281;28;20864;-75
2022/05/14 13:56:12;;;;;;;8.63;2.73;;;;;;;;;;5075262;28;20492;-75
2022/05/14 13:58:41;;;;;;;7.27;3.17;;;;;;;;;;5072477;28;20407;-75
2022/05/14 14:01:12;;;;;;;8.97;2.70;;;;;;;;;;5072632;28;20396;-75
2022/05/14 14:03:43;;;;;;;8.10;2.83;;;;;;;;;;5072073;28;20419;-75
2022/05/14 14:06:10;;;;;;;8.70;3.30;;;;;;;;;;5072476;28;20884;-75
2022/05/14 14:08:36;;;;;;;7.10;2.40;;;;;;;;;;5072691;28;20410;-75
2022/05/14 14:11:02;;;;;;;6.20;2.70;;;;;;;;;;5071836;28;20767;-75
2022/05/14 14:13:28;;;;;;;4.83;2.93;;;;;;;;;;5072013;28;20612;-77
2022/05/14 14:15:54;;;;;;;4.17;2.10;;;;;;;;;;5071499;28;20511;-75
2022/05/14 14:18:20;;;;;;;9.57;2.80;;;;;;;;;;5072818;28;20896;-75
2022/05/14 14:20:49;;;;;;;6.80;2.20;;;;;;;;;;5072704;28;20414;-74
2022/05/14 14:23:19;;;;;;;5.23;2.47;;;;;;;;;;5072312;28;20462;-75
2022/05/14 14:25:45;;;;;;;9.37;2.90;;;;;;;;;;5072107;28;20911;-76
2022/05/14 14:28:12;;;;;;;4.40;2.20;;;;;;;;;;5069789;28;20420;-75
2022/05/14 14:30:38;;;;;;;9.17;3.03;;;;;;;;;;5076903;28;20429;-75
2022/05/14 14:33:05;;;;;;;5.80;2.50;;;;;;;;;;5070617;28;20479;-73
2022/05/14 14:35:31;;;;;;;6.40;2.40;;;;;;;;;;5069546;28;20436;-75
2022/05/14 14:37:57;;;;;;;7.67;2.87;;;;;;;;;;5070837;28;20423;-74
2022/05/14 14:40:23;;;;;;;4.57;2.20;;;;;;;;;;5071968;28;20420;-74
2022/05/14 14:42:49;;;;;;;6.83;3.00;;;;;;;;;;5073822;28;20791;-73
2022/05/14 14:45:16;;;;;;;10.00;2.37;;;;;;;;;;5073750;28;20440;-74
2022/05/14 14:47:44;;;;;;;4.60;2.40;;;;;;;;;;5074299;28;20806;-75
2022/05/14 14:50:10;;;;;;;6.67;2.33;;;;;;;;;;5072986;28;20923;-74
2022/05/14 14:52:36;;;;;;;4.93;2.40;;;;;;;;;;5074417;28;20540;-75
2022/05/14 14:55:04;;;;;;;6.60;2.80;;;;;;;;;;5072413;28;20539;-74
2022/05/14 14:57:30;;;;;;;11.13;3.20;;;;;;;;;;5072561;28;20478;-75
2022/05/14 14:59:56;;;;;;;7.70;3.07;;;;;;;;;;5073723;28;20452;-75
2022/05/14 15:02:25;;;;;;;9.70;2.83;;;;;;;;;;5074324;28;20513;-74
2022/05/14 15:04:54;;;;;;;8.70;2.83;;;;;;;;;;5073063;28;20446;-75